首页
METAR-TAF:

METAR-TAF

机场 :

巴塞尔-米卢斯-弗赖堡欧洲机场

巴塞尔-米卢斯-弗赖堡欧洲机场, 法国

纬度: 47-36N, 经度: 007-31E, 海拔: 270米

当前天气观测

该预报发布于23分钟前的16:30 UTC
风速6节,风向,在南转南东西南之间变化
温度 3°C
湿度 81%
气压 1022 hPa
能见度10公里或以上
1500米以下无云,无积雨云

METAR: LFSB 241630Z 18006KT 150V220 CAVOK 03/00 Q1022 NOSIG

时间: 17:53 (16:53 UTC)

预报

该预报发布于5小时和53分钟前的11:00 UTC
预报有效从24日的 12点(UTC)到 25日的 12点(UTC)
风速6节,风向南转南东
能見度: 9000
几率 30%
从 24日的 22点(UTC)到 25日的 09点(UTC)
能見度: 4000
散云层高于500英尺
轻雾

TAF: LFSB 241100Z 2412/2512 16006KT 9000 NSC PROB30 2422/2509 4000 BR SCT005

超过4000个机场的气象观测和天气预报(METAR&TAF报告)。

可查询的气象台以黄色和红色小点在地图上表示。

将鼠标移到小点上方,可查看气象台名称。

然后点击查看天气观测和预报。

如需切换地图:点击带黑十字的绿色按钮放大地图;点击带横线的绿色按钮缩小地图;或者点击绿色箭头查看邻近地区的地图。


METAR-TAF: